Nearby METAR Reports

 

EGFF - Cardiff-Wales Ar, United Kingdom
Distance from station: SSW 23km
Updated: 16/12/2018 20:50
Clear
Clear
 Wind from WNW
Wind: WNW 24 km/h
Temperature: 7°C
Wind Chill: 3°C
Dew Point: 6°C
Humidity: 93%
Barometer: 1006 hPa
Clouds: Clear
Visibility: 10 km
2018/12/16 20:50 EGFF 162050Z AUTO 29013KT 9999 NCD 07/06 Q1006
EGDX - St Athan Raf, United Kingdom
Distance from station: SW 23km
Updated: 16/12/2018 20:50
Few Clouds
Few Clouds
 Wind from WNW
Wind: WNW 24 km/h
Temperature: 8°C
Wind Chill: 4°C
Dew Point: 5°C
Humidity: 82%
Barometer: 1006 hPa
Clouds: Few Clouds
Visibility: 10 km
Cloud details: Few Clouds 7620 m
2018/12/16 20:50 EGDX 162050Z AUTO 29013KT 9999 FEW250/// 08/05 Q1006
 
EGGD - Bristol/Lulsgate, United Kingdom
Distance from station: ESE 43km
Updated: 16/12/2018 20:50
Mostly cloudy
Mostly cloudy
 Wind from W
Wind: W 26 km/h
Temperature: 6°C
Wind Chill: 2°C
Dew Point: 6°C
Humidity: 100%
Barometer: 1006 hPa
Clouds: Mostly cloudy
Visibility: 10 km
Cloud details: Partly cloudy 457 m
Mostly cloudy 610 m
2018/12/16 20:50 EGGD 162050Z AUTO 26014KT 9999 SCT015 BKN020 06/06 Q1006
EGOP - Pembry Sands, United Kingdom
Distance from station: WNW 76km
Updated: 16/12/2018 20:50
Clear
Clear
 Wind from W
Wind: W 17 km/h
Temperature: 7°C
Wind Chill: 4°C
Dew Point: 5°C
Humidity: 87%
Barometer: 1006 hPa
Clouds: Clear
Visibility: 10 km
2018/12/16 20:50 EGOP 162050Z AUTO 27009KT 9999 // NCD 07/05 Q1006
 
EGDY - Yeovilton (navy), United Kingdom
Distance from station: SE 77km
Updated: 16/12/2018 19:50
NOT Current
Partly cloudy
Partly cloudy
 Wind from WSW
Wind: WSW 17 km/h
Temperature: 8°C
Wind Chill: 5°C
Dew Point: 6°C
Humidity: 87%
Barometer: 1005 hPa
Clouds: Partly cloudy
Visibility: 10 km
Cloud details: Partly cloudy 762 m
2018/12/16 19:50 EGDY 161950Z AUTO 25009KT 9999 SCT025/// 08/06 Q1005
EGBJ - Staverton (priva, United Kingdom
Distance from station: ENE 82km
Updated: 16/12/2018 17:20
NOT Current
Light rain, Showers, Overcast
Light rain, Showers, Overcast
 Wind from SSE
Wind: SSE 7 km/h
Temperature: 7°C
Wind Chill: 6°C
Dew Point: 6°C
Humidity: 93%
Barometer: 1003 hPa
Summary: Light rain, Showers
Clouds: Overcast
Visibility: 7 km
Cloud details: Few Clouds 610 m
Overcast 1219 m
2018/12/16 17:20 EGBJ 161720Z 15004KT 7000 -SHRA FEW020 OVC040 07/06 Q1003
 
EGTE - Exeter Airport, United Kingdom
Distance from station: S 96km
Updated: 16/12/2018 20:50
Few Clouds
Few Clouds
 Wind from WSW
Wind: WSW 9 km/h
Temperature: 7°C
Wind Chill: 6°C
Dew Point: 5°C
Humidity: 87%
Barometer: 1007 hPa
Clouds: Few Clouds
Visibility: 10 km
Cloud details: Few Clouds 853 m
2018/12/16 20:50 EGTE 162050Z 25005KT 9999 FEW028 07/05 Q1007